sensor_id;sensor_type;location;lat;lon;timestamp;pressure;altitude;pressure_sealevel;temperature;humidity
54308;BME280;40208;39.778;2.710;2023-12-20T00:01:56;102011.19;;;4.45;100.00
54308;BME280;40208;39.778;2.710;2023-12-20T00:04:41;102009.44;;;4.53;100.00
54308;BME280;40208;39.778;2.710;2023-12-20T00:07:26;102080.38;;;5.31;100.00
54308;BME280;40208;39.778;2.710;2023-12-20T00:10:10;102008.53;;;4.80;100.00
54308;BME280;40208;39.778;2.710;2023-12-20T00:12:57;102122.34;;;5.71;100.00
54308;BME280;40208;39.778;2.710;2023-12-20T00:15:42;102061.97;;;5.18;100.00
54308;BME280;40208;39.778;2.710;2023-12-20T00:18:26;102100.56;;;5.14;100.00
54308;BME280;40208;39.778;2.710;2023-12-20T00:21:11;102059.34;;;5.04;100.00
54308;BME280;40208;39.778;2.710;2023-12-20T00:23:56;102039.19;;;4.77;100.00
54308;BME280;40208;39.778;2.710;2023-12-20T00:26:41;102119.84;;;5.21;100.00
54308;BME280;40208;39.778;2.710;2023-12-20T00:29:26;101984.03;;;4.28;100.00
54308;BME280;40208;39.778;2.710;2023-12-20T00:32:11;102007.66;;;4.34;100.00
54308;BME280;40208;39.778;2.710;2023-12-20T00:34:56;101912.22;;;4.16;100.00
54308;BME280;40208;39.778;2.710;2023-12-20T00:37:42;102103.09;;;5.57;100.00
54308;BME280;40208;39.778;2.710;2023-12-20T00:40:27;102014.69;;;4.56;100.00
54308;BME280;40208;39.778;2.710;2023-12-20T00:43:12;101905.22;;;3.92;100.00
54308;BME280;40208;39.778;2.710;2023-12-20T00:45:57;102067.25;;;4.76;100.00
54308;BME280;40208;39.778;2.710;2023-12-20T00:48:44;101896.41;;;3.58;100.00
54308;BME280;40208;39.778;2.710;2023-12-20T00:51:29;101966.50;;;4.03;100.00
54308;BME280;40208;39.778;2.710;2023-12-20T00:54:14;101933.22;;;3.96;100.00
54308;BME280;40208;39.778;2.710;2023-12-20T00:56:59;102018.16;;;4.77;100.00
54308;BME280;40208;39.778;2.710;2023-12-20T00:59:44;101993.66;;;4.42;100.00
54308;BME280;40208;39.778;2.710;2023-12-20T01:02:29;101942.81;;;4.57;100.00
54308;BME280;40208;39.778;2.710;2023-12-20T01:05:14;102033.06;;;5.01;100.00
54308;BME280;40208;39.778;2.710;2023-12-20T01:07:59;101912.19;;;4.19;100.00
54308;BME280;40208;39.778;2.710;2023-12-20T01:10:44;102024.34;;;4.50;100.00
54308;BME280;40208;39.778;2.710;2023-12-20T01:13:31;102021.69;;;4.71;100.00
54308;BME280;40208;39.778;2.710;2023-12-20T01:16:15;101920.03;;;3.58;100.00
54308;BME280;40208;39.778;2.710;2023-12-20T01:19:00;101849.97;;;3.14;100.00
54308;BME280;40208;39.778;2.710;2023-12-20T01:21:45;101967.41;;;4.13;100.00
54308;BME280;40208;39.778;2.710;2023-12-20T01:24:30;101876.28;;;3.72;100.00
54308;BME280;40208;39.778;2.710;2023-12-20T01:27:14;101995.41;;;4.39;100.00
54308;BME280;40208;39.778;2.710;2023-12-20T01:29:59;102033.94;;;4.06;100.00
54308;BME280;40208;39.778;2.710;2023-12-20T01:32:44;101996.25;;;3.92;100.00
54308;BME280;40208;39.778;2.710;2023-12-20T01:35:29;102020.81;;;4.38;100.00
54308;BME280;40208;39.778;2.710;2023-12-20T01:38:14;101994.50;;;4.03;100.00
54308;BME280;40208;39.778;2.710;2023-12-20T01:40:58;102033.97;;;4.43;100.00
54308;BME280;40208;39.778;2.710;2023-12-20T01:43:44;102019.06;;;4.62;100.00
54308;BME280;40208;39.778;2.710;2023-12-20T01:46:29;101990.16;;;4.54;100.00
54308;BME280;40208;39.778;2.710;2023-12-20T01:49:14;102008.56;;;4.36;100.00
54308;BME280;40208;39.778;2.710;2023-12-20T01:51:59;102033.97;;;4.58;100.00
54308;BME280;40208;39.778;2.710;2023-12-20T01:54:44;102038.34;;;4.62;100.00
54308;BME280;40208;39.778;2.710;2023-12-20T01:57:29;102064.63;;;4.90;100.00
54308;BME280;40208;39.778;2.710;2023-12-20T02:00:15;101857.94;;;4.00;100.00
54308;BME280;40208;39.778;2.710;2023-12-20T02:03:04;102002.41;;;4.21;100.00
54308;BME280;40208;39.778;2.710;2023-12-20T02:05:49;101902.53;;;3.52;100.00
54308;BME280;40208;39.778;2.710;2023-12-20T02:08:35;101988.41;;;4.29;100.00
54308;BME280;40208;39.778;2.710;2023-12-20T02:11:20;101954.25;;;4.19;100.00
54308;BME280;40208;39.778;2.710;2023-12-20T02:14:05;102035.72;;;4.56;100.00
54308;BME280;40208;39.778;2.710;2023-12-20T02:16:50;101981.41;;;4.40;100.00
54308;BME280;40208;39.778;2.710;2023-12-20T02:19:35;101946.38;;;4.44;100.00
54308;BME280;40208;39.778;2.710;2023-12-20T02:22:19;101955.97;;;4.13;100.00
54308;BME280;40208;39.778;2.710;2023-12-20T02:25:04;102019.94;;;4.50;100.00
54308;BME280;40208;39.778;2.710;2023-12-20T02:27:49;102006.78;;;4.87;100.00
54308;BME280;40208;39.778;2.710;2023-12-20T02:30:34;101988.41;;;4.25;100.00
54308;BME280;40208;39.778;2.710;2023-12-20T02:33:19;101921.84;;;3.77;100.00
54308;BME280;40208;39.778;2.710;2023-12-20T02:36:04;102012.91;;;4.03;100.00
54308;BME280;40208;39.778;2.710;2023-12-20T02:38:49;101934.97;;;3.83;100.00
54308;BME280;40208;39.778;2.710;2023-12-20T02:41:35;101829.88;;;3.30;100.00
54308;BME280;40208;39.778;2.710;2023-12-20T02:44:20;101934.09;;;4.00;100.00
54308;BME280;40208;39.778;2.710;2023-12-20T02:47:05;101958.63;;;4.28;100.00
54308;BME280;40208;39.778;2.710;2023-12-20T02:49:49;101971.75;;;4.07;100.00
54308;BME280;40208;39.778;2.710;2023-12-20T02:52:34;101999.75;;;4.08;100.00
54308;BME280;40208;39.778;2.710;2023-12-20T02:55:19;101817.66;;;3.39;100.00
54308;BME280;40208;39.778;2.710;2023-12-20T02:58:04;101791.34;;;3.06;100.00
54308;BME280;40208;39.778;2.710;2023-12-20T03:00:49;101995.41;;;4.33;100.00
54308;BME280;40208;39.778;2.710;2023-12-20T03:03:33;101985.78;;;4.12;100.00
54308;BME280;40208;39.778;2.710;2023-12-20T03:06:19;101979.59;;;3.83;100.00
54308;BME280;40208;39.778;2.710;2023-12-20T03:09:03;101865.72;;;3.14;100.00
54308;BME280;40208;39.778;2.710;2023-12-20T03:11:48;101949.00;;;3.92;100.00
54308;BME280;40208;39.778;2.710;2023-12-20T03:14:33;101852.63;;;3.42;100.00
54308;BME280;40208;39.778;2.710;2023-12-20T03:17:18;101922.72;;;4.21;100.00
54308;BME280;40208;39.778;2.710;2023-12-20T03:20:05;101970.00;;;3.90;100.00
54308;BME280;40208;39.778;2.710;2023-12-20T03:22:50;101801.88;;;3.09;100.00
54308;BME280;40208;39.778;2.710;2023-12-20T03:25:35;101829.88;;;3.24;100.00
54308;BME280;40208;39.778;2.710;2023-12-20T03:28:20;101951.59;;;4.19;100.00
54308;BME280;40208;39.778;2.710;2023-12-20T03:31:05;101820.25;;;3.23;100.00
54308;BME280;40208;39.778;2.710;2023-12-20T03:33:50;101963.00;;;4.41;100.00
54308;BME280;40208;39.778;2.710;2023-12-20T03:36:36;101875.44;;;3.90;100.00
54308;BME280;40208;39.778;2.710;2023-12-20T03:39:21;101842.16;;;3.45;100.00
54308;BME280;40208;39.778;2.710;2023-12-20T03:42:06;101909.56;;;3.98;100.00
54308;BME280;40208;39.778;2.710;2023-12-20T03:44:51;101925.31;;;4.38;100.00
54308;BME280;40208;39.778;2.710;2023-12-20T03:47:36;101872.81;;;3.76;100.00
54308;BME280;40208;39.778;2.710;2023-12-20T03:50:22;101802.75;;;3.11;100.00
54308;BME280;40208;39.778;2.710;2023-12-20T03:53:07;101913.09;;;4.09;100.00
54308;BME280;40208;39.778;2.710;2023-12-20T03:55:52;101820.25;;;3.09;100.00
54308;BME280;40208;39.778;2.710;2023-12-20T03:58:37;101899.94;;;3.86;100.00
54308;BME280;40208;39.778;2.710;2023-12-20T04:01:22;101892.06;;;4.09;100.00
54308;BME280;40208;39.778;2.710;2023-12-20T04:04:07;101821.19;;;3.63;100.00
54308;BME280;40208;39.778;2.710;2023-12-20T04:06:51;101906.09;;;4.20;100.00
54308;BME280;40208;39.778;2.710;2023-12-20T04:09:36;101828.19;;;3.69;100.00
54308;BME280;40208;39.778;2.710;2023-12-20T04:12:21;101844.78;;;3.45;100.00
54308;BME280;40208;39.778;2.710;2023-12-20T04:15:06;101699.47;;;2.50;100.00
54308;BME280;40208;39.778;2.710;2023-12-20T04:17:53;101822.91;;;3.38;100.00
54308;BME280;40208;39.778;2.710;2023-12-20T04:20:38;101793.16;;;3.60;100.00
54308;BME280;40208;39.778;2.710;2023-12-20T04:23:23;101899.91;;;4.52;100.00
54308;BME280;40208;39.778;2.710;2023-12-20T04:26:08;101896.44;;;4.35;100.00
54308;BME280;40208;39.778;2.710;2023-12-20T04:28:53;101862.31;;;3.95;100.00
54308;BME280;40208;39.778;2.710;2023-12-20T04:31:37;101768.63;;;3.15;100.00
54308;BME280;40208;39.778;2.710;2023-12-20T04:34:22;101907.84;;;4.11;100.00
54308;BME280;40208;39.778;2.710;2023-12-20T04:37:07;101801.91;;;3.46;100.00
54308;BME280;40208;39.778;2.710;2023-12-20T04:39:52;101859.69;;;3.90;100.00
54308;BME280;40208;39.778;2.710;2023-12-20T04:42:37;101888.56;;;3.89;100.00
54308;BME280;40208;39.778;2.710;2023-12-20T04:45:21;101893.84;;;4.04;100.00
54308;BME280;40208;39.778;2.710;2023-12-20T04:48:08;101440.84;;;1.26;100.00
54308;BME280;40208;39.778;2.710;2023-12-20T04:50:53;101751.19;;;3.28;100.00
54308;BME280;40208;39.778;2.710;2023-12-20T04:53:37;101874.53;;;4.23;100.00
54308;BME280;40208;39.778;2.710;2023-12-20T04:56:22;101860.53;;;4.21;100.00
54308;BME280;40208;39.778;2.710;2023-12-20T04:59:07;101881.53;;;4.37;100.00
54308;BME280;40208;39.778;2.710;2023-12-20T05:01:52;101771.28;;;3.81;100.00
54308;BME280;40208;39.778;2.710;2023-12-20T05:04:37;101851.78;;;4.21;100.00
54308;BME280;40208;39.778;2.710;2023-12-20T05:07:21;101876.28;;;4.31;100.00
54308;BME280;40208;39.778;2.710;2023-12-20T05:10:07;101841.28;;;4.22;100.00
54308;BME280;40208;39.778;2.710;2023-12-20T05:12:54;101895.56;;;4.30;100.00
54308;BME280;40208;39.778;2.710;2023-12-20T05:15:39;101883.28;;;4.38;100.00
54308;BME280;40208;39.778;2.710;2023-12-20T05:18:24;101744.16;;;3.75;100.00
54308;BME280;40208;39.778;2.710;2023-12-20T05:21:09;101852.59;;;4.47;100.00
54308;BME280;40208;39.778;2.710;2023-12-20T05:23:53;101912.94;;;4.91;100.00
54308;BME280;40208;39.778;2.710;2023-12-20T05:26:38;101752.84;;;4.14;100.00
54308;BME280;40208;39.778;2.710;2023-12-20T05:29:23;101901.53;;;4.96;100.00
54308;BME280;40208;39.778;2.710;2023-12-20T05:32:08;101847.31;;;4.63;100.00
54308;BME280;40208;39.778;2.710;2023-12-20T05:34:53;101876.09;;;4.92;100.00
54308;BME280;40208;39.778;2.710;2023-12-20T05:37:38;101598.19;;;3.11;100.00
54308;BME280;40208;39.778;2.710;2023-12-20T05:40:22;101851.75;;;4.44;100.00
54308;BME280;40208;39.778;2.710;2023-12-20T05:43:08;101889.38;;;4.46;100.00
54308;BME280;40208;39.778;2.710;2023-12-20T05:45:53;101927.03;;;4.73;100.00
54308;BME280;40208;39.778;2.710;2023-12-20T05:48:37;101762.56;;;3.56;100.00
54308;BME280;40208;39.778;2.710;2023-12-20T05:51:22;101904.28;;;4.45;100.00
54308;BME280;40208;39.778;2.710;2023-12-20T05:54:08;101853.50;;;4.27;100.00
54308;BME280;40208;39.778;2.710;2023-12-20T05:56:53;101757.28;;;3.69;100.00
54308;BME280;40208;39.778;2.710;2023-12-20T05:59:38;101797.44;;;4.31;100.00
54308;BME280;40208;39.778;2.710;2023-12-20T06:02:23;101790.38;;;4.48;100.00
54308;BME280;40208;39.778;2.710;2023-12-20T06:05:08;101723.13;;;3.87;100.00
54308;BME280;40208;39.778;2.710;2023-12-20T06:07:53;101908.56;;;4.83;100.00
54308;BME280;40208;39.778;2.710;2023-12-20T06:10:38;101623.53;;;2.84;100.00
54308;BME280;40208;39.778;2.710;2023-12-20T06:13:23;101902.56;;;4.28;100.00
54308;BME280;40208;39.778;2.710;2023-12-20T06:16:08;101882.44;;;4.19;100.00
54308;BME280;40208;39.778;2.710;2023-12-20T06:18:53;101827.31;;;3.90;100.00
54308;BME280;40208;39.778;2.710;2023-12-20T06:21:38;101786.16;;;3.72;100.00
54308;BME280;40208;39.778;2.710;2023-12-20T06:24:23;101865.78;;;4.23;100.00
54308;BME280;40208;39.778;2.710;2023-12-20T06:27:12;101894.63;;;4.55;100.00
54308;BME280;40208;39.778;2.710;2023-12-20T06:29:57;101843.00;;;4.30;100.00
54308;BME280;40208;39.778;2.710;2023-12-20T06:32:42;101887.63;;;4.60;100.00
54308;BME280;40208;39.778;2.710;2023-12-20T06:35:27;101779.97;;;4.13;100.00
54308;BME280;40208;39.778;2.710;2023-12-20T06:38:13;101903.41;;;4.43;100.00
54308;BME280;40208;39.778;2.710;2023-12-20T06:40:58;101813.31;;;3.66;100.00
54308;BME280;40208;39.778;2.710;2023-12-20T06:43:43;101826.44;;;3.63;100.00
54308;BME280;40208;39.778;2.710;2023-12-20T06:46:28;101902.56;;;4.29;100.00
54308;BME280;40208;39.778;2.710;2023-12-20T06:49:13;101755.53;;;3.42;100.00
54308;BME280;40208;39.778;2.710;2023-12-20T06:51:57;101752.94;;;3.35;100.00
54308;BME280;40208;39.778;2.710;2023-12-20T06:54:42;101801.91;;;3.72;100.00
54308;BME280;40208;39.778;2.710;2023-12-20T06:57:27;101802.81;;;3.63;100.00
54308;BME280;40208;39.778;2.710;2023-12-20T07:00:12;101818.53;;;3.88;100.00
54308;BME280;40208;39.778;2.710;2023-12-20T07:02:57;101835.16;;;4.10;100.00
54308;BME280;40208;39.778;2.710;2023-12-20T07:05:43;101885.94;;;4.21;100.00
54308;BME280;40208;39.778;2.710;2023-12-20T07:08:27;101927.13;;;4.08;100.00
54308;BME280;40208;39.778;2.710;2023-12-20T07:11:12;101901.69;;;3.98;100.00
54308;BME280;40208;39.778;2.710;2023-12-20T07:13:57;101900.81;;;4.30;100.00
54308;BME280;40208;39.778;2.710;2023-12-20T07:16:42;101798.41;;;3.71;100.00
54308;BME280;40208;39.778;2.710;2023-12-20T07:19:27;101910.47;;;4.15;100.00
54308;BME280;40208;39.778;2.710;2023-12-20T07:22:12;101896.47;;;4.13;100.00
54308;BME280;40208;39.778;2.710;2023-12-20T07:24:57;101787.94;;;3.45;100.00
54308;BME280;40208;39.778;2.710;2023-12-20T07:27:41;101771.28;;;3.11;100.00
54308;BME280;40208;39.778;2.710;2023-12-20T07:30:26;101894.69;;;3.83;100.00
54308;BME280;40208;39.778;2.710;2023-12-20T07:33:11;101779.16;;;3.17;100.00
54308;BME280;40208;39.778;2.710;2023-12-20T07:35:56;101876.31;;;3.86;100.00
54308;BME280;40208;39.778;2.710;2023-12-20T07:38:41;101832.53;;;3.44;100.00
54308;BME280;40208;39.778;2.710;2023-12-20T07:41:28;101780.91;;;3.27;100.00
54308;BME280;40208;39.778;2.710;2023-12-20T07:44:13;101835.16;;;3.83;100.00
54308;BME280;40208;39.778;2.710;2023-12-20T07:46:59;101790.56;;;3.64;100.00
54308;BME280;40208;39.778;2.710;2023-12-20T07:49:45;101829.91;;;3.96;100.00
54308;BME280;40208;39.778;2.710;2023-12-20T07:52:30;101804.53;;;3.86;100.00
54308;BME280;40208;39.778;2.710;2023-12-20T07:55:15;101846.53;;;4.18;100.00
54308;BME280;40208;39.778;2.710;2023-12-20T07:58:00;101877.16;;;4.34;100.00
54308;BME280;40208;39.778;2.710;2023-12-20T08:00:44;101781.78;;;3.72;100.00
54308;BME280;40208;39.778;2.710;2023-12-20T08:03:29;101926.16;;;4.67;100.00
54308;BME280;40208;39.778;2.710;2023-12-20T08:06:14;101930.53;;;4.79;100.00
54308;BME280;40208;39.778;2.710;2023-12-20T08:08:59;101897.25;;;4.58;100.00
54308;BME280;40208;39.778;2.710;2023-12-20T08:11:47;101892.03;;;4.49;100.00
54308;BME280;40208;39.778;2.710;2023-12-20T08:14:32;101912.13;;;4.62;100.00
54308;BME280;40208;39.778;2.710;2023-12-20T08:17:17;101788.72;;;4.06;100.00
54308;BME280;40208;39.778;2.710;2023-12-20T08:20:03;101728.41;;;3.63;100.00
54308;BME280;40208;39.778;2.710;2023-12-20T08:22:49;101761.63;;;4.08;100.00
54308;BME280;40208;39.778;2.710;2023-12-20T08:25:34;101926.06;;;5.00;100.00
54308;BME280;40208;39.778;2.710;2023-12-20T08:28:19;101871.75;;;4.85;100.00
54308;BME280;40208;39.778;2.710;2023-12-20T08:31:04;101877.00;;;4.83;100.00
54308;BME280;40208;39.778;2.710;2023-12-20T08:33:49;101905.84;;;5.09;100.00
54308;BME280;40208;39.778;2.710;2023-12-20T08:36:33;101800.00;;;4.52;100.00
54308;BME280;40208;39.778;2.710;2023-12-20T08:39:18;101771.16;;;4.31;100.00
54308;BME280;40208;39.778;2.710;2023-12-20T08:42:03;101862.03;;;5.02;100.00
54308;BME280;40208;39.778;2.710;2023-12-20T08:44:48;101901.34;;;5.35;100.00
54308;BME280;40208;39.778;2.710;2023-12-20T08:47:33;101823.50;;;4.86;100.00
54308;BME280;40208;39.778;2.710;2023-12-20T08:50:18;101829.63;;;4.94;100.00
54308;BME280;40208;39.778;2.710;2023-12-20T08:53:03;101940.59;;;5.79;100.00
54308;BME280;40208;39.778;2.710;2023-12-20T08:55:48;101925.47;;;6.04;100.00
54308;BME280;40208;39.778;2.710;2023-12-20T08:58:32;101814.25;;;5.65;100.00
54308;BME280;40208;39.778;2.710;2023-12-20T09:01:17;101941.66;;;6.63;100.00
54308;BME280;40208;39.778;2.710;2023-12-20T09:04:02;101971.13;;;7.02;100.00
54308;BME280;40208;39.778;2.710;2023-12-20T09:06:47;101813.63;;;6.34;100.00
54308;BME280;40208;39.778;2.710;2023-12-20T09:09:32;101874.38;;;7.01;100.00
54308;BME280;40208;39.778;2.710;2023-12-20T09:12:20;101947.22;;;7.81;100.00
54308;BME280;40208;39.778;2.710;2023-12-20T09:15:05;101840.38;;;7.40;100.00
54308;BME280;40208;39.778;2.710;2023-12-20T09:17:50;101750.78;;;7.29;100.00
54308;BME280;40208;39.778;2.710;2023-12-20T09:20:35;101889.06;;;8.35;100.00
54308;BME280;40208;39.778;2.710;2023-12-20T09:23:20;101934.13;;;8.79;100.00
54308;BME280;40208;39.778;2.710;2023-12-20T09:26:05;101733.97;;;7.84;100.00
54308;BME280;40208;39.778;2.710;2023-12-20T09:28:49;101817.34;;;8.51;100.00
54308;BME280;40208;39.778;2.710;2023-12-20T09:31:36;101867.06;;;9.20;100.00
54308;BME280;40208;39.778;2.710;2023-12-20T09:34:21;101813.50;;;9.07;100.00
54308;BME280;40208;39.778;2.710;2023-12-20T09:37:06;101901.06;;;9.79;100.00
54308;BME280;40208;39.778;2.710;2023-12-20T09:39:52;101813.66;;;9.39;100.00
54308;BME280;40208;39.778;2.710;2023-12-20T09:45:31;101701.59;;;8.99;100.00
54308;BME280;40208;39.778;2.710;2023-12-20T09:48:18;101811.13;;;9.71;100.00
54308;BME280;40208;39.778;2.710;2023-12-20T09:51:04;101851.28;;;10.25;100.00
54308;BME280;40208;39.778;2.710;2023-12-20T09:53:48;101627.16;;;9.11;100.00
54308;BME280;40208;39.778;2.710;2023-12-20T09:56:33;101769.63;;;10.03;100.00
54308;BME280;40208;39.778;2.710;2023-12-20T09:59:18;101829.44;;;10.49;100.00
54308;BME280;40208;39.778;2.710;2023-12-20T10:02:05;101642.53;;;9.64;100.00
54308;BME280;40208;39.778;2.710;2023-12-20T10:04:54;101832.66;;;10.90;100.00
54308;BME280;40208;39.778;2.710;2023-12-20T10:07:39;101703.63;;;10.24;100.00
54308;BME280;40208;39.778;2.710;2023-12-20T10:10:24;101814.63;;;11.01;100.00
54308;BME280;40208;39.778;2.710;2023-12-20T10:13:12;101765.13;;;10.99;100.00
54308;BME280;40208;39.778;2.710;2023-12-20T10:15:57;101767.19;;;11.17;100.00
54308;BME280;40208;39.778;2.710;2023-12-20T10:18:42;101702.72;;;10.84;100.00
54308;BME280;40208;39.778;2.710;2023-12-20T10:21:27;101816.06;;;11.68;100.00
54308;BME280;40208;39.778;2.710;2023-12-20T10:24:17;101821.59;;;11.88;100.00
54308;BME280;40208;39.778;2.710;2023-12-20T10:27:06;101731.69;;;11.46;100.00
54308;BME280;40208;39.778;2.710;2023-12-20T10:29:51;101806.69;;;11.83;100.00
54308;BME280;40208;39.778;2.710;2023-12-20T10:32:36;101811.63;;;11.95;100.00
54308;BME280;40208;39.778;2.710;2023-12-20T10:35:20;101785.28;;;11.87;100.00
54308;BME280;40208;39.778;2.710;2023-12-20T10:38:06;101818.00;;;12.16;100.00
54308;BME280;40208;39.778;2.710;2023-12-20T10:40:54;101771.50;;;12.01;100.00
54308;BME280;40208;39.778;2.710;2023-12-20T10:43:42;101823.75;;;12.29;100.00
54308;BME280;40208;39.778;2.710;2023-12-20T10:46:27;101751.69;;;11.83;100.00
54308;BME280;40208;39.778;2.710;2023-12-20T10:49:17;101700.94;;;11.39;100.00
54308;BME280;40208;39.778;2.710;2023-12-20T10:52:02;101841.63;;;12.25;100.00
54308;BME280;40208;39.778;2.710;2023-12-20T10:54:48;101726.09;;;11.56;100.00
54308;BME280;40208;39.778;2.710;2023-12-20T10:57:36;101850.44;;;12.27;100.00
54308;BME280;40208;39.778;2.710;2023-12-20T11:00:21;101865.38;;;12.32;100.00
54308;BME280;40208;39.778;2.710;2023-12-20T11:03:09;101809.50;;;12.05;100.00
54308;BME280;40208;39.778;2.710;2023-12-20T11:06:02;101784.16;;;11.95;100.00
54308;BME280;40208;39.778;2.710;2023-12-20T11:09:10;101890.56;;;12.71;100.00
54308;BME280;40208;39.778;2.710;2023-12-20T11:12:10;101895.47;;;12.84;100.00
54308;BME280;40208;39.778;2.710;2023-12-20T11:14:58;101729.94;;;11.99;100.00
54308;BME280;40208;39.778;2.710;2023-12-20T11:17:55;101868.09;;;13.02;100.00
54308;BME280;40208;39.778;2.710;2023-12-20T11:20:41;101785.53;;;12.79;100.00
54308;BME280;40208;39.778;2.710;2023-12-20T11:23:26;101898.88;;;13.58;100.00
54308;BME280;40208;39.778;2.710;2023-12-20T11:26:11;101741.81;;;12.84;100.00
54308;BME280;40208;39.778;2.710;2023-12-20T11:29:36;101878.72;;;13.73;100.00
54308;BME280;40208;39.778;2.710;2023-12-20T11:37:57;101870.56;;;13.76;100.00
54308;BME280;40208;39.778;2.710;2023-12-20T11:40:43;101861.06;;;13.69;100.00
54308;BME280;40208;39.778;2.710;2023-12-20T11:43:38;101656.50;;;12.40;100.00
54308;BME280;40208;39.778;2.710;2023-12-20T11:46:23;101777.28;;;13.08;100.00
54308;BME280;40208;39.778;2.710;2023-12-20T11:49:08;101799.72;;;13.25;100.00
54308;BME280;40208;39.778;2.710;2023-12-20T11:51:53;101808.31;;;13.33;100.00
54308;BME280;40208;39.778;2.710;2023-12-20T11:54:38;101777.91;;;13.15;100.00
54308;BME280;40208;39.778;2.710;2023-12-20T11:57:23;101820.41;;;13.42;100.00
54308;BME280;40208;39.778;2.710;2023-12-20T12:00:08;101778.41;;;13.25;100.00
54308;BME280;40208;39.778;2.710;2023-12-20T12:02:59;101768.84;;;13.19;100.00
54308;BME280;40208;39.778;2.710;2023-12-20T12:05:47;101848.34;;;13.75;100.00
54308;BME280;40208;39.778;2.710;2023-12-20T12:08:33;101838.25;;;13.84;100.00
54308;BME280;40208;39.778;2.710;2023-12-20T12:11:18;101840.03;;;13.83;100.00
54308;BME280;40208;39.778;2.710;2023-12-20T12:14:03;101697.31;;;13.08;100.00
54308;BME280;40208;39.778;2.710;2023-12-20T12:16:48;101829.97;;;13.90;100.00
54308;BME280;40208;39.778;2.710;2023-12-20T12:19:34;101727.13;;;13.40;100.00
54308;BME280;40208;39.778;2.710;2023-12-20T12:22:38;101833.38;;;14.14;100.00
54308;BME280;40208;39.778;2.710;2023-12-20T12:25:24;101492.47;;;11.94;100.00
54308;BME280;40208;39.778;2.710;2023-12-20T12:28:08;101709.34;;;13.41;100.00
54308;BME280;40208;39.778;2.710;2023-12-20T12:30:58;101664.09;;;13.17;100.00
54308;BME280;40208;39.778;2.710;2023-12-20T12:33:43;101574.53;;;12.70;100.00
54308;BME280;40208;39.778;2.710;2023-12-20T12:36:29;101715.22;;;13.49;100.00
54308;BME280;40208;39.778;2.710;2023-12-20T12:39:15;101559.69;;;12.65;100.00
54308;BME280;40208;39.778;2.710;2023-12-20T12:42:02;101827.91;;;14.37;100.00
54308;BME280;40208;39.778;2.710;2023-12-20T12:44:47;101370.38;;;11.64;100.00
54308;BME280;40208;39.778;2.710;2023-12-20T12:47:32;101582.72;;;13.08;100.00
54308;BME280;40208;39.778;2.710;2023-12-20T12:50:17;101734.69;;;14.12;100.00
54308;BME280;40208;39.778;2.710;2023-12-20T12:53:02;101708.16;;;13.89;100.00
54308;BME280;40208;39.778;2.710;2023-12-20T12:55:47;101667.38;;;13.85;100.00
54308;BME280;40208;39.778;2.710;2023-12-20T12:58:32;101709.53;;;13.97;100.00
54308;BME280;40208;39.778;2.710;2023-12-20T13:01:17;101566.19;;;13.21;100.00
54308;BME280;40208;39.778;2.710;2023-12-20T13:04:02;101713.75;;;14.03;100.00
54308;BME280;40208;39.778;2.710;2023-12-20T13:06:48;101714.56;;;14.05;100.00
54308;BME280;40208;39.778;2.710;2023-12-20T13:09:33;101715.56;;;14.03;100.00
54308;BME280;40208;39.778;2.710;2023-12-20T13:12:18;101664.81;;;13.63;100.00
54308;BME280;40208;39.778;2.710;2023-12-20T13:15:03;101635.28;;;13.47;100.00
54308;BME280;40208;39.778;2.710;2023-12-20T13:17:48;101694.47;;;13.76;100.00
54308;BME280;40208;39.778;2.710;2023-12-20T13:20:33;101706.34;;;13.89;100.00
54308;BME280;40208;39.778;2.710;2023-12-20T13:23:18;101708.97;;;13.91;100.00
54308;BME280;40208;39.778;2.710;2023-12-20T13:26:03;101623.53;;;13.31;100.00
54308;BME280;40208;39.778;2.710;2023-12-20T13:28:48;101636.31;;;13.23;100.00
54308;BME280;40208;39.778;2.710;2023-12-20T13:31:33;101727.38;;;13.76;100.00
54308;BME280;40208;39.778;2.710;2023-12-20T13:34:17;101674.59;;;13.42;100.00
54308;BME280;40208;39.778;2.710;2023-12-20T13:37:02;101641.97;;;13.15;100.00
54308;BME280;40208;39.778;2.710;2023-12-20T13:39:49;101743.44;;;13.75;100.00
54308;BME280;40208;39.778;2.710;2023-12-20T13:42:34;101784.69;;;13.88;100.00
54308;BME280;40208;39.778;2.710;2023-12-20T13:45:19;101754.94;;;13.77;100.00
54308;BME280;40208;39.778;2.710;2023-12-20T13:48:04;101664.09;;;13.17;100.00
54308;BME280;40208;39.778;2.710;2023-12-20T13:50:49;101656.06;;;12.97;100.00
54308;BME280;40208;39.778;2.710;2023-12-20T13:53:33;101799.09;;;13.84;100.00
54308;BME280;40208;39.778;2.710;2023-12-20T13:56:19;101475.44;;;11.74;100.00
54308;BME280;40208;39.778;2.710;2023-12-20T13:59:04;101775.06;;;13.42;100.00
54308;BME280;40208;39.778;2.710;2023-12-20T14:01:49;101749.00;;;13.26;100.00
54308;BME280;40208;39.778;2.710;2023-12-20T14:04:34;101700.66;;;12.91;100.00
54308;BME280;40208;39.778;2.710;2023-12-20T14:07:19;101826.00;;;13.57;100.00
54308;BME280;40208;39.778;2.710;2023-12-20T14:10:05;101748.75;;;13.10;100.00
54308;BME280;40208;39.778;2.710;2023-12-20T14:12:50;101606.59;;;12.23;100.00
54308;BME280;40208;39.778;2.710;2023-12-20T14:15:35;101843.03;;;13.53;100.00
54308;BME280;40208;39.778;2.710;2023-12-20T14:18:21;101465.25;;;11.40;100.00
54308;BME280;40208;39.778;2.710;2023-12-20T14:21:06;101653.81;;;12.42;100.00
54308;BME280;40208;39.778;2.710;2023-12-20T14:23:51;101717.34;;;12.75;100.00
54308;BME280;40208;39.778;2.710;2023-12-20T14:26:36;101815.38;;;13.34;100.00
54308;BME280;40208;39.778;2.710;2023-12-20T14:29:21;101809.63;;;13.21;100.00
54308;BME280;40208;39.778;2.710;2023-12-20T14:32:06;101844.47;;;13.40;100.00